Time;durP1;ratioP1;P1;durP2;ratioP2;P2;SDS_P1;SDS_P2;PMS_P1;PMS_P2;Temp;Humidity;BMP_temperature;BMP_pressure;BME280_temperature;BME280_humidity;BME280_pressure;Samples;Min_cycle;Max_cycle;Signal;HPM_P1;HPM_P2
2023/03/14 00:02:20;;;;;;;5.47;2.27;;;11.20;97.10;;;10.54;74.57;98476.53;5054672;28;20186;-71
2023/03/14 00:04:54;;;;;;;2.90;1.83;;;11.20;97.10;;;10.51;74.28;98482.28;5054551;28;20284;-72
2023/03/14 00:07:26;;;;;;;3.37;2.20;;;11.20;97.20;;;10.53;74.13;98455.34;5054522;28;20604;-72
2023/03/14 00:09:58;;;;;;;3.10;2.07;;;11.20;97.20;;;10.48;74.56;98439.91;5054481;28;20194;-72
2023/03/14 00:12:31;;;;;;;4.73;1.83;;;11.10;97.30;;;10.50;74.44;98437.03;5054450;28;20252;-71
2023/03/14 00:15:04;;;;;;;5.27;2.37;;;11.10;97.40;;;10.48;74.54;98425.75;5054032;28;20230;-71
2023/03/14 00:17:37;;;;;;;3.53;2.00;;;11.10;97.40;;;10.49;74.25;98405.97;5053998;28;20194;-71
2023/03/14 00:20:13;;;;;;;4.17;2.10;;;11.10;97.40;;;10.45;74.54;98388.69;5054314;28;20202;-71
2023/03/14 00:22:45;;;;;;;4.07;2.10;;;11.10;97.50;;;10.44;74.86;98398.63;5054518;28;20224;-71
2023/03/14 00:25:18;;;;;;;5.47;2.10;;;11.10;97.60;;;10.41;75.15;98420.41;5054137;28;20229;-72
2023/03/14 00:27:53;;;;;;;5.73;1.90;;;11.10;97.70;;;10.42;75.07;98422.06;5054140;28;20190;-71
2023/03/14 00:30:25;;;;;;;3.47;1.77;;;11.10;97.60;;;10.40;74.79;98413.44;5054359;28;20201;-71
2023/03/14 00:32:56;;;;;;;4.00;1.83;;;11.10;97.70;;;10.40;75.26;98412.63;5053727;28;20693;-72
2023/03/14 00:35:28;;;;;;;2.80;1.80;;;11.10;97.80;;;10.39;75.50;98416.31;5054815;28;20581;-71
2023/03/14 00:38:00;;;;;;;3.70;2.33;;;11.10;97.80;;;10.40;75.43;98428.66;5054034;28;20190;-71
2023/03/14 00:40:32;;;;;;;3.77;2.00;;;11.10;97.90;;;10.38;75.48;98420.84;5053953;28;20187;-71
2023/03/14 00:43:05;;;;;;;3.27;2.03;;;11.00;97.90;;;10.37;75.62;98424.56;5053866;28;20199;-72
2023/03/14 00:45:37;;;;;;;3.83;1.90;;;11.00;98.10;;;10.35;76.05;98431.16;5053803;28;20237;-71
2023/03/14 00:48:09;;;;;;;4.50;1.87;;;11.00;98.10;;;10.36;76.12;98443.50;5053520;28;20553;-71
2023/03/14 00:50:41;;;;;;;3.13;1.97;;;11.00;98.30;;;10.38;76.58;98442.25;5053783;28;20194;-71
2023/03/14 00:53:13;;;;;;;4.97;2.10;;;11.10;98.40;;;10.42;76.32;98448.81;5053766;28;20190;-71
2023/03/14 00:55:46;;;;;;;4.53;1.83;;;11.10;98.40;;;10.40;76.82;98466.94;5053613;28;20210;-71
2023/03/14 00:58:21;;;;;;;5.17;1.80;;;11.10;98.60;;;10.41;76.94;98457.84;5053362;28;20602;-71
2023/03/14 01:00:53;;;;;;;3.77;2.10;;;11.10;98.80;;;10.44;77.12;98446.75;5053618;28;20202;-71
2023/03/14 01:03:25;;;;;;;4.17;2.20;;;11.10;98.80;;;10.47;77.30;98438.31;5053523;28;20194;-71
2023/03/14 01:06:06;;;;;;;4.13;1.70;;;11.20;99.00;;;10.52;77.04;98429.59;5054114;28;20191;-71
2023/03/14 01:08:38;;;;;;;3.73;1.90;;;11.20;98.80;;;10.56;77.19;98422.78;5053796;28;20195;-71
2023/03/14 01:11:13;;;;;;;3.77;1.90;;;11.20;98.80;;;10.62;77.06;98417.41;5052611;28;20574;-71
2023/03/14 01:13:47;;;;;;;2.17;1.80;;;11.30;98.80;;;10.65;76.78;98390.19;5053369;28;20238;-71
2023/03/14 01:16:20;;;;;;;4.67;2.20;;;11.30;98.70;;;10.60;76.90;98395.41;5053321;28;20275;-71
2023/03/14 01:18:54;;;;;;;2.40;2.00;;;11.30;98.70;;;10.66;76.58;98399.88;5053417;28;20197;-71
2023/03/14 01:21:28;;;;;;;4.30;1.87;;;11.30;98.50;;;10.64;76.58;98410.00;5053426;28;20194;-71
2023/03/14 01:24:02;;;;;;;6.87;2.40;;;11.30;98.40;;;10.66;76.44;98401.72;5053526;28;20256;-71
2023/03/14 01:26:36;;;;;;;3.93;2.00;;;11.40;98.40;;;10.59;76.36;98411.66;5053344;28;20194;-71
2023/03/14 01:29:10;;;;;;;6.00;1.87;;;11.30;98.40;;;10.62;76.05;98395.16;5052989;28;20635;-71
2023/03/14 01:31:42;;;;;;;4.13;1.70;;;11.30;98.30;;;10.65;75.82;98398.22;5053346;28;20197;-71
2023/03/14 01:34:13;;;;;;;5.13;2.03;;;11.30;98.10;;;10.58;76.04;98389.44;5053222;28;20279;-72
2023/03/14 01:36:45;;;;;;;2.90;1.90;;;11.30;98.20;;;10.58;75.72;98384.06;5053198;28;20218;-71
2023/03/14 01:39:17;;;;;;;4.40;1.83;;;11.30;98.10;;;10.56;75.48;98399.53;5053207;28;20194;-71
2023/03/14 01:41:49;;;;;;;4.37;1.90;;;11.30;98.00;;;10.60;75.04;98397.25;5052909;28;20559;-71
2023/03/14 01:44:22;;;;;;;3.13;1.80;;;11.30;97.80;;;10.56;75.36;98380.81;5053103;28;20222;-71
2023/03/14 01:46:54;;;;;;;6.53;1.97;;;11.20;97.70;;;10.54;75.42;98374.03;5053651;28;20198;-71
2023/03/14 01:49:31;;;;;;;3.10;1.80;;;11.20;97.80;;;10.63;74.76;98407.53;5053151;28;20198;-70
2023/03/14 01:52:11;;;;;;;4.87;1.90;;;11.30;97.70;;;10.58;74.88;98407.38;5053117;28;20197;-71
2023/03/14 01:54:48;;;;;;;4.73;2.10;;;11.30;97.60;;;10.51;75.00;98404.72;5053039;28;20229;-71
2023/03/14 01:57:27;;;;;;;5.90;2.33;;;11.20;97.70;;;10.61;74.64;98372.97;5052694;28;20585;-71
2023/03/14 02:00:10;;;;;;;4.07;1.97;;;11.30;97.60;;;10.56;74.99;98356.72;5053042;28;20186;-71
2023/03/14 02:02:45;;;;;;;3.73;1.90;;;11.30;97.60;;;10.53;75.34;98351.81;5053035;28;20217;-71
2023/03/14 02:05:24;;;;;;;3.40;1.60;;;11.20;97.70;;;10.55;74.80;98368.47;5052882;28;20588;-71
2023/03/14 02:08:00;;;;;;;4.17;1.90;;;11.30;97.70;;;10.50;75.33;98348.75;5052861;28;20197;-72
2023/03/14 02:10:37;;;;;;;10.40;2.40;;;11.20;97.70;;;10.47;75.20;98344.66;5052953;28;20185;-71
2023/03/14 02:13:11;;;;;;;3.07;1.80;;;11.10;97.80;;;10.48;75.34;98346.28;5052919;28;20186;-71
2023/03/14 02:15:45;;;;;;;3.43;1.90;;;11.10;97.80;;;10.49;75.08;98349.78;5052451;28;20598;-71
2023/03/14 02:18:19;;;;;;;4.13;2.00;;;11.20;97.70;;;10.47;75.32;98350.03;5052554;28;20763;-71
2023/03/14 02:20:59;;;;;;;5.70;2.17;;;11.20;97.70;;;10.48;74.95;98354.31;5052849;28;20260;-71
2023/03/14 02:23:42;;;;;;;4.43;1.90;;;11.10;97.70;;;10.52;75.03;98352.84;5055708;28;20190;-72
2023/03/14 02:26:22;;;;;;;4.90;1.90;;;11.20;97.50;;;10.50;74.52;98368.31;5056151;28;20666;-71
2023/03/14 02:28:58;;;;;;;3.33;1.70;;;11.20;97.50;;;10.52;74.58;98368.06;5056134;28;20190;-71
2023/03/14 02:31:30;;;;;;;5.87;1.77;;;11.20;97.40;;;10.49;74.68;98381.88;5056413;28;20194;-71
2023/03/14 02:34:03;;;;;;;3.43;1.73;;;11.20;97.40;;;10.53;74.16;98381.25;5056554;28;20225;-71
2023/03/14 02:36:35;;;;;;;3.20;1.93;;;11.20;97.20;;;10.53;74.19;98364.38;5056542;28;20214;-71
2023/03/14 02:39:18;;;;;;;4.17;1.83;;;11.20;97.10;;;10.56;73.91;98363.94;5056221;28;20191;-71
2023/03/14 02:41:50;;;;;;;6.47;1.90;;;11.20;97.00;;;10.54;73.93;98350.78;5056143;28;20186;-71
2023/03/14 02:44:23;;;;;;;4.23;1.70;;;11.20;97.00;;;10.52;73.81;98347.50;5056047;28;20245;-71
2023/03/14 02:46:55;;;;;;;4.63;1.77;;;11.20;96.90;;;10.46;74.21;98347.56;5055768;28;20693;-71
2023/03/14 02:49:30;;;;;;;5.70;2.00;;;11.20;97.10;;;10.54;73.33;98350.78;5056036;28;20197;-71
2023/03/14 02:52:01;;;;;;;3.33;1.80;;;11.20;96.80;;;10.50;73.53;98344.22;5056011;28;20186;-71
2023/03/14 02:54:33;;;;;;;6.17;1.70;;;11.20;96.70;;;10.57;72.74;98342.31;5055595;28;20598;-72
2023/03/14 02:57:05;;;;;;;4.83;1.97;;;11.20;96.40;;;10.55;72.57;98325.66;5055825;28;20211;-72
2023/03/14 02:59:38;;;;;;;4.33;2.10;;;11.30;96.40;;;10.59;72.35;98326.88;5055527;28;20190;-72
2023/03/14 03:02:10;;;;;;;7.07;2.50;;;11.30;96.20;;;10.52;72.78;98328.78;5055832;28;20202;-72
2023/03/14 03:04:42;;;;;;;4.93;2.10;;;11.20;96.30;;;10.51;72.73;98329.00;5055724;28;20226;-72
2023/03/14 03:07:14;;;;;;;5.80;1.90;;;11.20;96.30;;;10.47;72.74;98331.28;5055713;28;20190;-72
2023/03/14 03:09:46;;;;;;;4.43;1.80;;;11.20;96.30;;;10.55;72.32;98320.31;5055863;28;20194;-72
2023/03/14 03:12:17;;;;;;;4.90;2.10;;;11.30;96.10;;;10.48;72.72;98324.88;5055645;28;20198;-72
2023/03/14 03:14:50;;;;;;;4.27;1.87;;;11.20;96.30;;;10.45;72.89;98314.63;5055316;28;20233;-72
2023/03/14 03:17:22;;;;;;;7.33;2.47;;;11.10;96.30;;;10.46;72.44;98308.25;5055447;28;20252;-72
2023/03/14 03:19:54;;;;;;;4.83;2.20;;;11.20;96.20;;;10.50;72.07;98298.75;5055447;28;20190;-72
2023/03/14 03:22:26;;;;;;;5.73;2.10;;;11.20;96.10;;;10.44;72.56;98306.84;5055132;28;20566;-72
2023/03/14 03:24:58;;;;;;;7.63;1.87;;;11.10;96.20;;;10.52;72.11;98310.03;5055002;28;20242;-72
2023/03/14 03:27:33;;;;;;;6.20;1.70;;;11.20;96.10;;;10.48;72.17;98303.50;5055002;28;20554;-72
2023/03/14 03:30:08;;;;;;;6.03;2.00;;;11.20;96.00;;;10.45;72.27;98295.09;5055541;28;20196;-72
2023/03/14 03:32:40;;;;;;;3.67;1.57;;;11.10;96.10;;;10.42;71.98;98293.66;5055228;28;20189;-72
2023/03/14 03:35:13;;;;;;;5.23;1.80;;;11.10;96.10;;;10.41;72.18;98293.91;5053954;28;20582;-72
2023/03/14 03:37:45;;;;;;;3.17;1.60;;;11.10;96.20;;;10.40;72.24;98287.72;5055046;28;20210;-72
2023/03/14 03:40:17;;;;;;;3.00;1.87;;;11.00;96.10;;;10.39;72.56;98283.41;5054952;28;20259;-72
2023/03/14 03:42:51;;;;;;;6.33;1.60;;;11.10;96.10;;;10.38;72.35;98276.41;5055050;28;20190;-72
2023/03/14 03:45:24;;;;;;;3.70;1.70;;;11.10;96.10;;;10.39;72.30;98272.72;5054605;28;20226;-72
2023/03/14 03:47:57;;;;;;;4.17;1.87;;;11.10;96.10;;;10.40;72.19;98273.53;5054914;28;20201;-72
2023/03/14 03:50:29;;;;;;;2.97;1.40;;;11.10;96.00;;;10.32;73.13;98271.94;5054882;28;20194;-72
2023/03/14 03:53:01;;;;;;;5.60;1.53;;;11.00;96.40;;;10.35;72.67;98281.38;5054851;28;20210;-72
2023/03/14 03:55:33;;;;;;;4.77;1.80;;;11.00;96.30;;;10.34;74.33;98269.88;5054418;28;20706;-72
2023/03/14 03:58:05;;;;;;;4.80;2.23;;;11.00;97.00;;;10.28;75.34;98275.25;5054936;28;20260;-72
2023/03/14 04:00:38;;;;;;;5.73;1.97;;;11.00;97.70;;;10.23;75.83;98286.63;5054426;28;20611;-72
2023/03/14 04:03:10;;;;;;;4.03;1.80;;;10.90;97.90;;;10.27;75.17;98295.03;5054641;28;20221;-72
2023/03/14 04:05:42;;;;;;;5.23;1.50;;;11.00;97.70;;;10.24;76.19;98301.63;5054418;28;20233;-72
2023/03/14 04:08:14;;;;;;;4.00;1.80;;;11.00;98.10;;;10.07;78.42;98336.06;5054571;28;20190;-72
2023/03/14 04:10:45;;;;;;;3.30;1.63;;;10.80;99.30;;;9.86;80.47;98351.63;5054492;28;20190;-72
2023/03/14 04:13:17;;;;;;;4.83;1.70;;;10.60;99.90;;;9.69;81.83;98345.97;5054101;28;20603;-72
2023/03/14 04:15:51;;;;;;;3.90;1.83;;;10.40;99.90;;;9.51;83.04;98330.63;5054089;28;20235;-71
2023/03/14 04:18:25;;;;;;;4.33;1.83;;;10.30;99.90;;;9.51;83.45;98317.25;5054009;28;20578;-71
2023/03/14 04:20:59;;;;;;;5.10;1.80;;;10.20;99.90;;;9.44;84.03;98305.78;5054031;28;20220;-72
2023/03/14 04:23:31;;;;;;;5.20;1.73;;;10.20;99.90;;;9.43;83.60;98301.47;5053931;28;20198;-72
2023/03/14 04:26:03;;;;;;;3.90;1.70;;;10.20;99.90;;;9.44;83.13;98302.28;5054270;28;20193;-72
2023/03/14 04:28:36;;;;;;;5.10;1.60;;;10.20;99.90;;;9.43;82.86;98292.63;5054227;28;20194;-72
2023/03/14 04:31:18;;;;;;;5.53;1.87;;;10.20;99.90;;;9.38;83.46;98290.63;5054163;28;20191;-72
2023/03/14 04:33:50;;;;;;;3.97;1.40;;;10.10;99.90;;;9.37;81.84;98294.31;5054041;28;20226;-72
2023/03/14 04:36:22;;;;;;;3.47;1.47;;;10.10;99.90;;;9.34;82.35;98302.75;5053681;28;20584;-72
2023/03/14 04:38:53;;;;;;;4.37;1.30;;;10.10;99.90;;;9.32;82.08;98301.28;5053679;28;20669;-72
2023/03/14 04:41:25;;;;;;;2.13;1.20;;;10.00;99.90;;;9.27;81.71;98298.44;5053940;28;20236;-72
2023/03/14 04:43:57;;;;;;;1.73;1.03;;;10.00;99.90;;;9.23;80.90;98298.06;5053896;28;20233;-72
2023/03/14 04:46:30;;;;;;;1.97;1.30;;;10.00;99.90;;;9.18;81.15;98282.66;5053769;28;20194;-72
2023/03/14 04:49:02;;;;;;;4.80;1.53;;;9.90;99.90;;;9.19;80.98;98275.47;5053865;28;20190;-72
2023/03/14 04:51:34;;;;;;;1.80;1.20;;;9.90;99.90;;;9.12;80.16;98274.69;5053804;28;20561;-72
2023/03/14 04:54:06;;;;;;;1.97;1.10;;;9.80;99.90;;;9.12;79.63;98285.34;5053705;28;20227;-72
2023/03/14 04:56:38;;;;;;;3.53;1.33;;;9.90;99.90;;;9.07;79.05;98285.19;5052736;28;20194;-72
2023/03/14 04:59:09;;;;;;;1.23;0.80;;;9.80;99.90;;;9.00;78.83;98269.19;5053473;28;20194;-72
2023/03/14 05:01:43;;;;;;;1.50;1.00;;;9.70;99.90;;;8.99;78.93;98272.06;5053579;28;20190;-73
2023/03/14 05:04:15;;;;;;;2.50;1.20;;;9.70;99.90;;;9.00;78.72;98274.53;5053587;28;20226;-74
2023/03/14 05:06:46;;;;;;;3.07;1.00;;;9.70;99.90;;;8.95;78.34;98282.34;5053255;28;20201;-74
2023/03/14 05:09:18;;;;;;;2.17;1.10;;;9.70;99.90;;;8.91;78.79;98272.28;5053469;28;20186;-74
2023/03/14 05:11:50;;;;;;;1.27;0.70;;;9.70;99.90;;;8.88;78.32;98273.53;5053478;28;20197;-73
2023/03/14 05:14:22;;;;;;;2.47;1.10;;;9.60;99.90;;;8.86;78.41;98275.59;5053262;28;20226;-73
2023/03/14 05:16:55;;;;;;;0.77;0.77;;;9.60;99.90;;;8.85;78.33;98275.78;5053187;28;20681;-73
2023/03/14 05:19:27;;;;;;;1.17;1.07;;;9.60;99.90;;;8.79;79.35;98263.28;5053934;28;20190;-73
2023/03/14 05:21:59;;;;;;;2.93;1.10;;;9.60;99.90;;;8.77;78.91;98260.81;5053583;28;20202;-73
2023/03/14 05:24:31;;;;;;;2.90;1.00;;;9.50;99.90;;;8.75;78.37;98254.06;5053284;28;20229;-73
2023/03/14 05:27:03;;;;;;;1.87;1.10;;;9.50;99.90;;;8.73;78.65;98270.28;5053001;28;20561;-73
2023/03/14 05:29:34;;;;;;;4.57;1.43;;;9.50;99.90;;;8.71;78.58;98263.50;5053319;28;20190;-73
2023/03/14 05:32:08;;;;;;;3.63;1.10;;;9.40;99.90;;;8.72;79.02;98267.81;5053243;28;20190;-74
2023/03/14 05:34:40;;;;;;;4.67;1.30;;;9.50;99.90;;;8.72;79.42;98267.81;5053168;28;20222;-73
2023/03/14 05:37:11;;;;;;;5.13;1.33;;;9.40;99.90;;;8.71;79.01;98271.50;5053144;28;20190;-73
2023/03/14 05:39:43;;;;;;;5.77;1.27;;;9.50;99.90;;;8.65;79.12;98271.31;5052943;28;20666;-73
2023/03/14 05:42:15;;;;;;;2.87;1.43;;;9.40;99.90;;;8.65;79.63;98274.00;5053219;28;20190;-73
2023/03/14 05:44:47;;;;;;;3.13;1.30;;;9.40;99.90;;;8.62;79.69;98268.25;5053035;28;20538;-73
2023/03/14 05:47:20;;;;;;;4.03;1.30;;;9.40;99.90;;;8.60;80.28;98268.44;5053146;28;20191;-73
2023/03/14 05:49:52;;;;;;;4.13;1.60;;;9.30;99.90;;;8.60;79.59;98271.13;5053104;28;20198;-73
2023/03/14 05:52:23;;;;;;;4.83;1.70;;;9.30;99.90;;;8.56;80.39;98258.41;5052806;28;20190;-73
2023/03/14 05:54:55;;;;;;;5.83;1.50;;;9.30;99.90;;;8.63;79.56;98265.34;5053422;28;20709;-73
2023/03/14 05:57:27;;;;;;;4.93;1.47;;;9.40;99.90;;;8.62;80.30;98265.59;5054067;28;20256;-73
2023/03/14 05:59:59;;;;;;;4.30;1.60;;;9.40;99.90;;;8.60;80.25;98276.44;5057226;28;20209;-73
2023/03/14 06:02:32;;;;;;;4.87;1.53;;;9.40;99.90;;;8.61;80.18;98278.09;5056937;28;20221;-73
2023/03/14 06:05:05;;;;;;;4.73;1.63;;;9.30;99.90;;;8.61;80.79;98278.09;5056508;28;20543;-73
2023/03/14 06:07:36;;;;;;;5.73;1.80;;;9.40;99.90;;;8.61;80.20;98277.28;5056783;28;20241;-73
2023/03/14 06:10:08;;;;;;;6.90;2.10;;;9.40;99.90;;;8.63;79.93;98278.69;5056489;28;20657;-73
2023/03/14 06:12:40;;;;;;;4.67;2.20;;;9.40;99.90;;;8.66;80.10;98286.28;5056744;28;20191;-73
2023/03/14 06:15:13;;;;;;;5.00;1.90;;;9.40;99.90;;;8.70;79.99;98283.22;5056462;28;20241;-73
2023/03/14 06:17:46;;;;;;;7.23;2.10;;;9.40;99.90;;;8.75;79.40;98288.75;5056511;28;20280;-72
2023/03/14 06:20:19;;;;;;;4.57;1.50;;;9.50;99.90;;;8.76;79.78;98287.72;5056543;28;20186;-72
2023/03/14 06:22:50;;;;;;;2.63;1.73;;;9.50;99.90;;;8.77;79.36;98286.69;5056531;28;20197;-72
2023/03/14 06:25:22;;;;;;;5.47;1.70;;;9.50;99.90;;;8.78;79.92;98278.47;5056109;28;20789;-73
2023/03/14 06:27:54;;;;;;;5.80;2.10;;;9.50;99.90;;;8.82;79.72;98274.38;5056712;28;20191;-73
2023/03/14 06:30:26;;;;;;;7.30;2.07;;;9.60;99.90;;;8.83;79.61;98275.19;5056404;28;20201;-73
2023/03/14 06:32:59;;;;;;;5.70;2.00;;;9.60;99.90;;;8.92;79.10;98273.91;5055895;28;20556;-73
2023/03/14 06:35:31;;;;;;;6.67;1.63;;;9.60;99.90;;;8.99;78.46;98269.38;5055994;28;20593;-72
2023/03/14 06:38:03;;;;;;;6.10;2.07;;;9.70;99.90;;;9.02;78.56;98275.13;5056472;28;20213;-72
2023/03/14 06:40:35;;;;;;;5.80;1.93;;;9.80;99.90;;;9.03;78.92;98282.13;5056269;28;20194;-72
2023/03/14 06:43:07;;;;;;;5.60;1.77;;;9.80;99.90;;;9.11;78.41;98283.72;5056203;28;20213;-73
2023/03/14 06:45:39;;;;;;;5.07;1.77;;;9.80;99.90;;;9.17;77.81;98293.56;5056054;28;20288;-73
2023/03/14 06:48:12;;;;;;;5.27;1.90;;;9.90;99.60;;;9.16;78.50;98286.56;5055715;28;20218;-73
2023/03/14 06:50:45;;;;;;;3.97;1.93;;;9.90;99.80;;;9.14;78.90;98285.97;5055939;28;20194;-73
2023/03/14 06:53:17;;;;;;;6.20;2.20;;;9.90;99.80;;;9.16;78.27;98290.06;5055933;28;20194;-73
2023/03/14 06:55:49;;;;;;;6.20;1.97;;;9.90;99.70;;;9.18;78.06;98284.50;5055886;28;20198;-73
2023/03/14 06:58:20;;;;;;;4.80;1.60;;;9.90;99.50;;;9.22;77.19;98287.56;5055789;28;20214;-73
2023/03/14 07:00:53;;;;;;;3.80;1.70;;;10.00;99.30;;;9.27;76.51;98291.28;5055400;28;20607;-73
2023/03/14 07:03:26;;;;;;;4.13;1.40;;;10.00;98.90;;;9.29;76.08;98286.53;5055538;28;20194;-73
2023/03/14 07:05:57;;;;;;;3.20;2.03;;;10.00;98.60;;;9.33;75.82;98287.75;5055808;28;20240;-73
2023/03/14 07:08:29;;;;;;;2.77;1.50;;;10.00;98.50;;;9.34;76.21;98289.41;5054086;28;20567;-73
2023/03/14 07:11:01;;;;;;;2.73;1.63;;;10.10;98.50;;;9.30;76.38;98290.84;5055217;28;20662;-73
2023/03/14 07:13:33;;;;;;;3.37;1.50;;;10.00;98.80;;;9.32;76.17;98291.44;5055421;28;20187;-73
2023/03/14 07:16:05;;;;;;;5.03;1.60;;;10.00;98.60;;;9.30;76.78;98288.19;5055273;28;20237;-73
2023/03/14 07:18:39;;;;;;;3.93;1.60;;;10.10;98.90;;;9.36;76.58;98291.84;5055321;28;20245;-73
2023/03/14 07:21:12;;;;;;;5.67;1.50;;;10.10;98.80;;;9.36;77.72;98300.66;5055376;28;20240;-73
2023/03/14 07:23:43;;;;;;;3.80;1.27;;;10.10;99.10;;;9.27;79.13;98293.94;5054958;28;20226;-73
2023/03/14 07:26:15;;;;;;;1.67;1.10;;;10.00;99.90;;;9.23;79.84;98298.06;5055217;28;20190;-73
2023/03/14 07:28:47;;;;;;;2.77;1.40;;;10.00;99.90;;;9.18;80.46;98284.50;5055210;28;20197;-73
2023/03/14 07:31:19;;;;;;;2.93;1.20;;;9.90;99.90;;;9.16;81.17;98302.59;5055185;28;20190;-73
2023/03/14 07:33:52;;;;;;;2.70;1.20;;;9.90;99.90;;;9.14;81.15;98297.44;5055035;28;20316;-73
2023/03/14 07:36:24;;;;;;;2.60;1.00;;;9.90;99.90;;;9.15;81.33;98298.28;5055002;28;20199;-73
2023/03/14 07:38:56;;;;;;;2.87;1.20;;;9.90;99.90;;;9.16;80.37;98302.59;5054865;28;20321;-73
2023/03/14 07:41:28;;;;;;;3.33;1.10;;;9.90;99.90;;;9.15;81.41;98301.78;5054994;28;20194;-74
2023/03/14 07:44:00;;;;;;;16.73;2.90;;;9.90;99.90;;;9.17;81.18;98314.94;5054672;28;20866;-74
2023/03/14 07:46:31;;;;;;;22.57;4.03;;;9.90;99.90;;;9.13;81.30;98311.03;5054795;28;20198;-74
2023/03/14 07:49:04;;;;;;;4.63;1.20;;;9.90;99.90;;;9.12;81.14;98314.72;5054770;28;20197;-74
2023/03/14 07:51:36;;;;;;;3.33;1.20;;;9.90;99.90;;;9.10;81.47;98309.59;5054805;28;20198;-74
2023/03/14 07:54:08;;;;;;;3.80;1.37;;;9.80;99.90;;;9.08;82.56;98332.19;5054328;28;20710;-74
2023/03/14 07:56:40;;;;;;;4.23;1.10;;;9.80;99.90;;;8.99;83.65;98317.44;5054704;28;20213;-74
2023/03/14 07:59:12;;;;;;;2.40;1.00;;;9.70;99.90;;;8.91;84.92;98325.63;5054594;28;20210;-74
2023/03/14 08:01:44;;;;;;;2.63;1.00;;;9.70;99.90;;;8.87;85.20;98333.25;5054529;28;20209;-74
2023/03/14 08:04:17;;;;;;;4.17;1.23;;;9.60;99.90;;;8.79;86.32;98332.66;5054456;28;20240;-74
2023/03/14 08:06:49;;;;;;;2.60;1.30;;;9.50;99.90;;;8.70;86.85;98329.38;5054499;28;20209;-74
2023/03/14 08:09:21;;;;;;;2.83;1.10;;;9.40;99.90;;;8.63;87.57;98323.22;5054497;28;20228;-74
2023/03/14 08:11:53;;;;;;;3.63;1.40;;;9.40;99.90;;;8.66;88.12;98328.16;5054719;28;20194;-74
2023/03/14 08:14:24;;;;;;;3.93;1.50;;;9.40;99.90;;;8.57;87.38;98330.19;5054511;28;20226;-73
2023/03/14 08:16:56;;;;;;;3.07;1.50;;;9.30;99.90;;;8.55;88.35;98321.59;5054544;28;20198;-73
2023/03/14 08:19:29;;;;;;;3.10;1.20;;;9.30;99.90;;;8.55;88.56;98320.78;5054257;28;20222;-73
2023/03/14 08:22:01;;;;;;;3.40;1.23;;;9.30;99.90;;;8.52;89.31;98322.00;5053886;28;20669;-73
2023/03/14 08:24:34;;;;;;;2.17;1.37;;;9.30;99.90;;;8.52;88.81;98318.53;5054059;28;20233;-73
2023/03/14 08:27:06;;;;;;;1.50;1.20;;;9.30;99.90;;;8.54;89.43;98313.78;5054297;28;20206;-73
2023/03/14 08:29:41;;;;;;;1.17;0.90;;;9.30;99.90;;;8.55;88.17;98310.94;5054091;28;20194;-73
2023/03/14 08:32:13;;;;;;;1.30;1.00;;;9.30;99.90;;;8.58;89.11;98309.69;5054235;28;20194;-73
2023/03/14 08:34:46;;;;;;;2.37;1.03;;;9.30;99.90;;;8.61;88.93;98309.28;5053587;28;20717;-73
2023/03/14 08:37:19;;;;;;;6.97;1.20;;;9.40;99.90;;;8.65;87.62;98306.00;5053303;28;20195;-73
2023/03/14 08:39:57;;;;;;;2.53;1.03;;;9.40;99.90;;;8.69;88.35;98310.91;5053547;28;20778;-72
2023/03/14 08:42:30;;;;;;;1.27;1.07;;;9.40;99.90;;;8.71;87.66;98308.84;5053757;28;20190;-72
2023/03/14 08:45:02;;;;;;;3.27;1.07;;;9.40;99.90;;;8.72;87.39;98316.66;5053677;28;20230;-72
2023/03/14 08:47:34;;;;;;;0.97;0.80;;;9.50;99.90;;;8.75;86.94;98320.75;5053870;28;20194;-72
2023/03/14 08:50:09;;;;;;;0.83;0.77;;;9.50;99.90;;;8.79;87.40;98314.81;5054383;28;20205;-72
2023/03/14 08:52:44;;;;;;;1.90;0.73;;;9.60;99.90;;;8.87;86.88;98309.22;5053802;28;20289;-71
2023/03/14 08:55:17;;;;;;;2.43;0.90;;;9.60;99.90;;;8.90;86.82;98318.69;5053718;28;20226;-72
2023/03/14 08:57:51;;;;;;;1.90;0.80;;;9.60;99.90;;;8.92;86.69;98316.63;5053746;28;20190;-72
2023/03/14 09:00:24;;;;;;;1.73;0.80;;;9.60;99.90;;;8.93;86.41;98323.59;5053630;28;20214;-72
2023/03/14 09:02:56;;;;;;;1.20;0.90;;;9.70;99.90;;;8.96;87.03;98321.34;5053680;28;20194;-71
2023/03/14 09:05:29;;;;;;;1.37;0.90;;;9.70;99.90;;;9.00;86.64;98321.75;5053643;28;20226;-72
2023/03/14 09:08:01;;;;;;;2.00;1.30;;;9.70;99.90;;;9.06;87.31;98320.91;5053630;28;20198;-72
2023/03/14 09:10:33;;;;;;;1.53;1.17;;;9.80;99.90;;;9.03;86.57;98315.97;5053578;28;20201;-71
2023/03/14 09:13:04;;;;;;;1.47;1.10;;;9.80;99.90;;;9.05;86.94;98319.25;5053163;28;20584;-72
2023/03/14 09:15:36;;;;;;;1.37;1.07;;;9.80;99.90;;;9.07;87.61;98311.88;5053303;28;20248;-72
2023/03/14 09:18:08;;;;;;;2.47;1.23;;;9.80;99.90;;;9.07;87.10;98319.88;5053473;28;20195;-72
2023/03/14 09:20:42;;;;;;;1.70;1.00;;;9.80;99.90;;;9.12;87.81;98306.72;5053344;28;20207;-72
2023/03/14 09:23:17;;;;;;;1.43;0.90;;;9.80;99.90;;;9.20;87.30;98308.34;5053106;28;20183;-72
2023/03/14 09:25:49;;;;;;;3.33;1.47;;;9.90;99.90;;;9.28;87.33;98322.25;5053409;28;20193;-72
2023/03/14 09:28:21;;;;;;;3.27;1.30;;;10.00;99.90;;;9.32;86.60;98323.47;5053039;28;20191;-72
2023/03/14 09:30:54;;;;;;;2.80;1.30;;;10.00;99.90;;;9.34;86.56;98316.09;5052988;28;20635;-72
2023/03/14 09:33:26;;;;;;;4.83;1.60;;;10.10;99.90;;;9.34;86.57;98305.41;5056140;28;20193;-72
2023/03/14 09:36:03;;;;;;;3.10;1.43;;;10.10;99.90;;;9.33;87.24;98309.09;5057660;28;20223;-72
2023/03/14 09:38:40;;;;;;;3.67;1.20;;;10.10;99.90;;;9.33;87.71;98314.44;5057441;28;20197;-71
2023/03/14 09:41:22;;;;;;;2.27;1.03;;;10.10;99.90;;;9.33;87.27;98313.63;5057019;28;20677;-71
2023/03/14 09:44:00;;;;;;;2.63;1.40;;;10.10;99.90;;;9.38;86.98;98319.16;5057480;28;20230;-71
2023/03/14 09:46:36;;;;;;;4.50;1.67;;;10.10;99.90;;;9.41;87.25;98316.91;5057503;28;20198;-72
2023/03/14 09:49:11;;;;;;;4.50;1.57;;;10.20;99.90;;;9.45;85.84;98323.44;5057251;28;20199;-72
2023/03/14 09:51:46;;;;;;;3.33;1.20;;;10.20;99.90;;;9.49;86.52;98319.31;5056868;28;20601;-72
2023/03/14 09:54:32;;;;;;;4.20;1.73;;;10.20;99.90;;;9.53;86.97;98335.72;5057029;28;20232;-72
2023/03/14 09:57:04;;;;;;;3.77;1.50;;;10.20;99.90;;;9.54;87.20;98330.19;5057124;28;20186;-72
2023/03/14 09:59:40;;;;;;;5.10;1.50;;;10.30;99.90;;;9.60;86.63;98326.66;5056919;28;20218;-73
2023/03/14 10:02:19;;;;;;;4.87;1.57;;;10.30;99.90;;;9.61;86.55;98325.63;5056669;28;20613;-73
2023/03/14 10:04:54;;;;;;;6.03;1.50;;;10.30;99.90;;;9.76;86.27;98327.22;5056887;28;20236;-72
2023/03/14 10:07:32;;;;;;;3.57;1.67;;;10.50;99.90;;;10.11;84.36;98323.06;5056946;28;20190;-72
2023/03/14 10:10:11;;;;;;;5.63;1.60;;;10.80;99.90;;;10.36;84.16;98320.47;5056844;28;20236;-72
2023/03/14 10:12:46;;;;;;;4.03;1.70;;;11.00;99.90;;;10.35;83.80;98322.31;5056764;28;20194;-72
2023/03/14 10:15:27;;;;;;;3.07;1.60;;;11.10;99.90;;;10.30;84.10;98314.16;5056488;28;20237;-72
2023/03/14 10:18:02;;;;;;;2.37;1.60;;;11.00;99.90;;;10.39;83.71;98315.50;5056868;28;20193;-74
2023/03/14 10:20:41;;;;;;;3.83;1.80;;;11.10;99.90;;;10.48;82.63;98314.19;5056203;28;20213;-74
2023/03/14 10:23:28;;;;;;;2.20;1.30;;;11.20;99.90;;;10.60;82.96;98307.09;5056631;28;20305;-74
2023/03/14 10:26:08;;;;;;;2.73;1.37;;;11.30;99.90;;;10.74;82.86;98307.81;5056238;28;20671;-74
2023/03/14 10:28:47;;;;;;;1.60;1.40;;;11.40;99.90;;;10.81;82.32;98303.22;5056229;28;20194;-74
2023/03/14 10:31:25;;;;;;;2.53;1.40;;;11.50;99.90;;;10.95;81.79;98306.56;5056462;28;20187;-74
2023/03/14 10:34:16;;;;;;;1.37;1.20;;;11.60;99.90;;;11.01;80.54;98297.66;5056317;28;20232;-74
2023/03/14 10:36:52;;;;;;;1.90;1.13;;;11.70;99.90;;;11.01;80.52;98319.06;5056316;28;20194;-73
2023/03/14 10:39:49;;;;;;;3.07;1.23;;;11.70;99.90;;;10.92;80.47;98315.03;5055997;28;20198;-73
2023/03/14 10:42:29;;;;;;;3.37;1.80;;;11.60;99.90;;;10.83;80.48;98306.47;5056274;28;20244;-64
2023/03/14 10:45:07;;;;;;;1.83;1.20;;;11.50;99.90;;;10.83;80.71;98305.66;5056050;28;20268;-75
2023/03/14 10:47:49;;;;;;;1.40;1.30;;;11.40;99.90;;;10.77;80.93;98306.53;5055496;28;20498;-74
2023/03/14 10:50:31;;;;;;;1.70;1.17;;;11.50;99.90;;;10.74;80.50;98306.97;5056003;28;20682;-75
2023/03/14 10:53:06;;;;;;;1.80;1.53;;;11.40;99.90;;;10.67;80.21;98302.50;5056261;28;20201;-75